In Rescue
 
Open Full Screen Window  High Contrast Mode
Wind Gusting 17 knots
14
September 22, 2020 12:52 AM EDT
Weather Information
Wind Direction
  180 °
Wind Speed
  14 kt (16 mph)
Wind Gust
  17 kt (20 mph)
Altimeter
30.22 in
Visibility
10 SM
Temperature
14° C
57° F
Dewpoint
07° C
45° F
Humidity
63%
Sky Condition
Clear
VFR

METAR KPZQ 220452Z AUTO 18014G17KT 10SM CLR 14/07 A3022 RMK AO2 T01400066

FAA Disclaimer: The data displayed is for advisory purposes only and is not to be used for flight planning or operations.